createdAt,value
2017-07-02T00:00:30.306Z,0
2017-07-02T00:01:10.754Z,0
2017-07-02T00:01:51.205Z,0
2017-07-02T00:02:31.670Z,0
2017-07-02T00:03:12.112Z,0
2017-07-02T00:03:52.571Z,0
2017-07-02T00:04:33.029Z,0
2017-07-02T00:05:13.483Z,0
2017-07-02T00:05:53.942Z,0
2017-07-02T00:06:34.410Z,0
2017-07-02T00:07:14.861Z,0
2017-07-02T00:07:55.295Z,0
2017-07-02T00:08:35.752Z,0
2017-07-02T00:09:16.206Z,0
2017-07-02T00:09:56.658Z,0
2017-07-02T00:10:37.110Z,0
2017-07-02T00:11:17.574Z,0
2017-07-02T00:11:58.029Z,0
2017-07-02T00:12:38.486Z,0
2017-07-02T00:13:18.936Z,0
2017-07-02T00:13:59.403Z,0
2017-07-02T00:14:39.853Z,0
2017-07-02T00:15:20.315Z,0
2017-07-02T00:16:00.770Z,0
2017-07-02T00:16:41.225Z,0
2017-07-02T00:17:21.682Z,0
2017-07-02T00:18:02.133Z,0
2017-07-02T00:18:42.585Z,0
2017-07-02T00:19:23.088Z,0
2017-07-02T00:20:03.484Z,0
2017-07-02T00:20:43.945Z,0
2017-07-02T00:21:24.407Z,0
2017-07-02T00:22:04.858Z,0
2017-07-02T00:22:45.309Z,0
2017-07-02T00:23:25.773Z,0
2017-07-02T00:24:06.216Z,0
2017-07-02T00:24:46.677Z,0
2017-07-02T00:25:27.130Z,0
2017-07-02T00:26:07.587Z,0
2017-07-02T00:26:48.041Z,0
2017-07-02T00:27:28.496Z,0
2017-07-02T00:28:08.948Z,0
2017-07-02T00:28:49.414Z,0
2017-07-02T00:29:29.867Z,0
2017-07-02T00:30:10.320Z,0
2017-07-02T00:30:50.771Z,0
2017-07-02T00:31:31.221Z,0
2017-07-02T00:32:11.672Z,0
2017-07-02T00:32:52.128Z,0
2017-07-02T00:35:10.266Z,0
2017-07-02T00:35:50.722Z,0
2017-07-02T00:36:31.176Z,0
2017-07-02T00:37:11.629Z,0
2017-07-02T00:37:52.115Z,0
2017-07-02T00:38:32.555Z,0
2017-07-02T00:39:13.017Z,0
2017-07-02T00:39:53.458Z,0
2017-07-02T00:40:34.529Z,0
2017-07-02T00:41:14.983Z,0
2017-07-02T00:41:55.442Z,0
2017-07-02T00:42:35.897Z,0
2017-07-02T00:43:16.360Z,0
2017-07-02T00:43:56.811Z,0
2017-07-02T00:44:37.264Z,0
2017-07-02T00:45:17.722Z,0
2017-07-02T00:45:58.179Z,0
2017-07-02T00:46:38.632Z,0
2017-07-02T00:47:19.085Z,0
2017-07-02T00:47:59.538Z,0
2017-07-02T00:48:39.992Z,0
2017-07-02T00:49:20.445Z,0
2017-07-02T00:50:00.896Z,0
2017-07-02T00:50:41.348Z,0
2017-07-02T00:51:21.788Z,0
2017-07-02T00:52:02.244Z,0
2017-07-02T00:52:42.700Z,0
2017-07-02T00:53:23.195Z,0
2017-07-02T00:54:03.654Z,0
2017-07-02T00:54:44.122Z,0
2017-07-02T00:55:24.577Z,0
2017-07-02T00:56:05.037Z,0
2017-07-02T00:56:45.496Z,0
2017-07-02T00:57:25.944Z,0
2017-07-02T00:58:06.397Z,0
2017-07-02T00:58:46.855Z,0
2017-07-02T00:59:27.306Z,0
2017-07-02T01:00:07.760Z,0
2017-07-02T01:00:48.217Z,0
2017-07-02T01:01:28.668Z,0
2017-07-02T01:02:09.125Z,0
2017-07-02T01:02:49.587Z,0
2017-07-02T01:03:30.038Z,0
2017-07-02T01:04:10.485Z,0
2017-07-02T01:04:50.931Z,0
2017-07-02T01:05:31.389Z,0
2017-07-02T01:06:11.848Z,0
2017-07-02T01:06:52.311Z,0
2017-07-02T01:07:32.764Z,0
2017-07-02T01:08:13.218Z,0
2017-07-02T01:08:53.674Z,0
2017-07-02T01:09:34.123Z,0
2017-07-02T01:10:14.583Z,0
2017-07-02T01:10:55.048Z,0
2017-07-02T01:11:35.491Z,0
2017-07-02T01:12:15.944Z,0
2017-07-02T01:12:56.385Z,0
2017-07-02T01:13:36.831Z,0
2017-07-02T01:14:17.282Z,0
2017-07-02T01:14:57.729Z,0
2017-07-02T01:15:38.180Z,0
2017-07-02T01:18:12.284Z,0
2017-07-02T01:18:52.737Z,0
2017-07-02T01:19:33.194Z,0
2017-07-02T01:20:13.655Z,0
2017-07-02T01:20:54.103Z,0
2017-07-02T01:21:34.560Z,0
2017-07-02T01:22:15.015Z,0
2017-07-02T01:22:55.474Z,0
2017-07-02T01:23:35.942Z,0
2017-07-02T01:24:16.387Z,0
2017-07-02T01:24:56.837Z,0
2017-07-02T01:25:37.293Z,0
2017-07-02T01:26:17.736Z,0
2017-07-02T01:26:58.183Z,0
2017-07-02T01:27:38.639Z,0
2017-07-02T01:28:19.084Z,0
2017-07-02T01:28:59.541Z,0
2017-07-02T01:29:39.994Z,0
2017-07-02T01:30:20.447Z,0
2017-07-02T01:31:00.898Z,0
2017-07-02T01:31:41.358Z,0
2017-07-02T01:32:21.813Z,0
2017-07-02T01:33:02.271Z,0
2017-07-02T01:33:42.729Z,0
2017-07-02T01:34:23.257Z,0
2017-07-02T01:35:03.671Z,0
2017-07-02T01:35:44.121Z,0
2017-07-02T01:36:24.581Z,0
2017-07-02T01:37:05.038Z,0
2017-07-02T01:37:45.491Z,0
2017-07-02T01:38:25.953Z,0
2017-07-02T01:39:06.412Z,0
2017-07-02T01:39:46.866Z,0
2017-07-02T01:40:27.321Z,0
2017-07-02T01:41:07.787Z,0
2017-07-02T01:41:48.247Z,0
2017-07-02T01:42:28.706Z,0
2017-07-02T01:43:09.160Z,0
2017-07-02T01:43:49.619Z,0
2017-07-02T01:44:30.075Z,0
2017-07-02T01:45:10.523Z,0
2017-07-02T01:45:50.979Z,0
2017-07-02T01:46:31.424Z,0
2017-07-02T01:47:11.886Z,0
2017-07-02T01:47:52.330Z,0
2017-07-02T01:48:32.784Z,0
2017-07-02T01:49:13.236Z,0
2017-07-02T01:49:53.693Z,0
2017-07-02T01:50:34.151Z,0
2017-07-02T01:51:14.603Z,0
2017-07-02T01:51:55.068Z,0
2017-07-02T01:52:35.518Z,0
2017-07-02T01:53:15.976Z,0
2017-07-02T01:53:56.433Z,0
2017-07-02T01:54:36.883Z,0
2017-07-02T01:55:17.349Z,0
2017-07-02T01:55:57.805Z,0
2017-07-02T01:56:38.295Z,0
2017-07-02T01:57:18.746Z,0
2017-07-02T01:57:59.195Z,0
2017-07-02T01:58:39.650Z,0
2017-07-02T01:59:20.106Z,0
2017-07-02T02:00:00.598Z,0
2017-07-02T02:00:41.019Z,0
2017-07-02T02:01:21.517Z,0
2017-07-02T02:02:01.929Z,0
2017-07-02T02:02:42.383Z,0
2017-07-02T02:03:22.838Z,0
2017-07-02T02:04:03.299Z,0
2017-07-02T02:04:43.760Z,0
2017-07-02T02:05:24.219Z,0
2017-07-02T02:06:04.673Z,0
2017-07-02T02:06:45.123Z,0
2017-07-02T02:07:25.575Z,0
2017-07-02T02:08:06.011Z,0
2017-07-02T02:08:46.470Z,0
2017-07-02T02:09:26.919Z,0
2017-07-02T02:10:07.365Z,0
2017-07-02T02:10:47.816Z,0
2017-07-02T02:11:28.347Z,0
2017-07-02T02:12:08.802Z,0
2017-07-02T02:12:49.258Z,0
2017-07-02T02:13:29.716Z,0
2017-07-02T02:14:10.174Z,0
2017-07-02T02:14:50.629Z,0
2017-07-02T02:15:31.087Z,0
2017-07-02T02:16:11.544Z,0
2017-07-02T02:16:52.000Z,0
2017-07-02T02:17:32.463Z,0
2017-07-02T02:18:12.918Z,0
2017-07-02T02:18:53.394Z,0
2017-07-02T02:19:33.852Z,0
2017-07-02T02:20:14.314Z,0
2017-07-02T02:20:54.768Z,0
2017-07-02T02:21:35.222Z,0
2017-07-02T02:22:15.670Z,0
2017-07-02T02:22:56.124Z,0
2017-07-02T02:23:36.579Z,0
2017-07-02T02:24:17.042Z,0
2017-07-02T02:24:57.489Z,0
2017-07-02T02:25:37.938Z,0
2017-07-02T02:26:18.392Z,0
2017-07-02T02:26:58.849Z,0
2017-07-02T02:27:39.292Z,0
2017-07-02T02:28:19.746Z,0
2017-07-02T02:29:00.208Z,0
2017-07-02T02:29:40.668Z,0
2017-07-02T02:30:21.123Z,0
2017-07-02T02:31:01.581Z,0
2017-07-02T02:31:42.042Z,0
2017-07-02T02:32:22.500Z,0
2017-07-02T02:33:02.951Z,0
2017-07-02T02:33:43.420Z,0
2017-07-02T02:34:23.867Z,0
2017-07-02T02:35:04.318Z,0
2017-07-02T02:35:44.769Z,0
2017-07-02T02:36:25.219Z,0
2017-07-02T02:37:05.672Z,0
2017-07-02T02:37:46.133Z,0
2017-07-02T02:38:26.589Z,0
2017-07-02T02:39:07.061Z,0
2017-07-02T02:39:47.527Z,0
2017-07-02T02:40:27.979Z,0
2017-07-02T02:41:08.429Z,0
2017-07-02T02:41:48.890Z,0
2017-07-02T02:42:29.347Z,0
2017-07-02T02:43:09.792Z,0
2017-07-02T02:43:50.246Z,0
2017-07-02T02:44:30.707Z,0
2017-07-02T02:45:11.163Z,0
2017-07-02T02:45:51.633Z,0
2017-07-02T02:46:32.092Z,0
2017-07-02T02:47:12.547Z,0
2017-07-02T02:47:52.998Z,0
2017-07-02T02:48:33.453Z,0
2017-07-02T02:49:13.906Z,0
2017-07-02T02:49:54.356Z,0
2017-07-02T02:50:34.808Z,0
2017-07-02T02:51:15.266Z,0
2017-07-02T02:51:55.717Z,0
2017-07-02T02:52:36.164Z,0
2017-07-02T02:53:16.617Z,0
2017-07-02T02:53:57.069Z,0
2017-07-02T02:54:37.527Z,0
2017-07-02T02:55:17.988Z,0
2017-07-02T02:55:58.443Z,0
2017-07-02T02:56:38.897Z,0
2017-07-02T02:57:19.354Z,0
2017-07-02T02:57:59.812Z,0
2017-07-02T02:58:40.281Z,0
2017-07-02T02:59:20.723Z,0
2017-07-02T03:00:01.176Z,0
2017-07-02T03:00:41.626Z,0
2017-07-02T03:01:22.085Z,0
2017-07-02T03:02:02.549Z,0
2017-07-02T03:02:42.996Z,0
2017-07-02T03:03:23.468Z,0
2017-07-02T03:04:03.920Z,0
2017-07-02T03:04:44.378Z,0
2017-07-02T03:05:24.833Z,0
2017-07-02T03:06:05.283Z,0
2017-07-02T03:06:45.741Z,0
2017-07-02T03:07:26.198Z,0
2017-07-02T03:08:06.652Z,0
2017-07-02T03:08:47.106Z,0
2017-07-02T03:09:27.567Z,0
2017-07-02T03:10:08.041Z,0
2017-07-02T03:10:48.473Z,0
2017-07-02T03:11:28.927Z,0
2017-07-02T03:12:09.383Z,0
2017-07-02T03:12:49.828Z,0
2017-07-02T03:13:30.295Z,0
2017-07-02T03:14:10.753Z,0
2017-07-02T03:14:51.209Z,0
2017-07-02T03:15:31.703Z,0
2017-07-02T03:16:12.125Z,0
2017-07-02T03:16:52.583Z,0
2017-07-02T03:17:33.038Z,0
2017-07-02T03:18:13.497Z,0
2017-07-02T03:18:53.958Z,0
2017-07-02T03:19:34.414Z,0
2017-07-02T03:20:14.869Z,0
2017-07-02T03:20:55.320Z,0
2017-07-02T03:21:35.770Z,0
2017-07-02T03:22:16.227Z,0
2017-07-02T03:22:56.686Z,0
2017-07-02T03:23:37.162Z,0
2017-07-02T03:24:17.582Z,0
2017-07-02T03:24:58.033Z,0
2017-07-02T03:25:38.546Z,0
2017-07-02T03:26:18.994Z,0
2017-07-02T03:26:59.492Z,0
2017-07-02T03:27:39.913Z,0
2017-07-02T03:28:20.367Z,0
2017-07-02T03:29:00.820Z,0
2017-07-02T03:29:41.280Z,0
2017-07-02T03:30:21.738Z,0
2017-07-02T03:31:02.197Z,0
2017-07-02T03:31:42.659Z,0
2017-07-02T03:32:23.115Z,0
2017-07-02T03:33:03.576Z,0
2017-07-02T03:33:44.025Z,0
2017-07-02T03:34:24.486Z,0
2017-07-02T03:35:04.937Z,0
2017-07-02T03:35:45.398Z,0
2017-07-02T03:36:25.852Z,0
2017-07-02T03:37:06.308Z,0
2017-07-02T03:37:46.761Z,0
2017-07-02T03:38:27.217Z,0
2017-07-02T03:39:07.667Z,0
2017-07-02T03:39:48.125Z,0
2017-07-02T03:40:28.649Z,0
2017-07-02T03:41:09.099Z,0
2017-07-02T03:41:49.560Z,0
2017-07-02T03:42:30.020Z,0
2017-07-02T03:43:10.474Z,0
2017-07-02T03:43:50.939Z,0
2017-07-02T03:44:31.396Z,0
2017-07-02T03:45:11.853Z,0
2017-07-02T03:45:52.330Z,0
2017-07-02T03:46:32.782Z,0
2017-07-02T03:47:13.230Z,0
2017-07-02T03:47:53.690Z,0
2017-07-02T03:48:34.144Z,0
2017-07-02T03:49:14.600Z,0
2017-07-02T03:49:55.057Z,0
2017-07-02T03:50:35.514Z,0
2017-07-02T03:51:15.973Z,0
2017-07-02T03:51:56.430Z,0
2017-07-02T03:52:36.885Z,0
2017-07-02T03:53:17.340Z,0
2017-07-02T03:53:57.793Z,0
2017-07-02T03:54:38.250Z,0
2017-07-02T03:55:18.741Z,0
2017-07-02T03:55:59.149Z,0
2017-07-02T03:56:39.625Z,0
2017-07-02T03:57:20.049Z,0
2017-07-02T03:58:00.499Z,0
2017-07-02T03:58:40.957Z,4
2017-07-02T03:59:21.416Z,4
2017-07-02T04:00:01.873Z,4
2017-07-02T04:00:42.331Z,0
2017-07-02T04:01:22.783Z,0
2017-07-02T04:02:03.239Z,0
2017-07-02T04:02:43.702Z,0
2017-07-02T04:03:24.184Z,0
2017-07-02T04:04:04.629Z,4
2017-07-02T04:04:45.093Z,4
2017-07-02T04:05:25.557Z,4
2017-07-02T04:06:06.005Z,4
2017-07-02T04:06:46.462Z,4
2017-07-02T04:07:26.920Z,0
2017-07-02T04:08:07.411Z,4
2017-07-02T04:08:47.867Z,4
2017-07-02T04:09:28.324Z,4
2017-07-02T04:10:08.780Z,4
2017-07-02T04:10:49.210Z,0
2017-07-02T04:11:29.669Z,0
2017-07-02T04:12:10.126Z,0
2017-07-02T04:12:50.580Z,0
2017-07-02T04:13:31.035Z,4
2017-07-02T04:14:11.496Z,4
2017-07-02T04:14:51.942Z,4
2017-07-02T04:15:32.403Z,4
2017-07-02T04:16:12.862Z,4
2017-07-02T04:16:53.322Z,4
2017-07-02T04:17:33.773Z,4
2017-07-02T04:18:14.236Z,0
2017-07-02T04:18:54.684Z,0
2017-07-02T04:19:35.138Z,0
2017-07-02T04:20:15.596Z,0
2017-07-02T04:20:56.047Z,0
2017-07-02T04:21:36.507Z,0
2017-07-02T04:22:16.961Z,0
2017-07-02T04:22:57.408Z,4
2017-07-02T04:23:37.857Z,4
2017-07-02T04:24:18.311Z,4
2017-07-02T04:24:58.827Z,4
2017-07-02T04:25:39.268Z,4
2017-07-02T04:26:19.727Z,4
2017-07-02T04:27:00.180Z,4
2017-07-02T04:27:40.638Z,4
2017-07-02T04:28:21.090Z,4
2017-07-02T04:29:01.547Z,4
2017-07-02T04:29:41.996Z,4
2017-07-02T04:30:22.451Z,4
2017-07-02T04:31:02.905Z,4
2017-07-02T04:31:43.363Z,4
2017-07-02T04:32:23.811Z,4
2017-07-02T04:33:04.272Z,4
2017-07-02T04:33:44.745Z,4
2017-07-02T04:34:25.201Z,4
2017-07-02T04:35:05.656Z,4
2017-07-02T04:35:46.104Z,4
2017-07-02T04:36:26.551Z,4
2017-07-02T04:37:07.003Z,4
2017-07-02T04:37:47.453Z,4
2017-07-02T04:38:27.906Z,4
2017-07-02T04:39:08.361Z,4
2017-07-02T04:39:48.813Z,8
2017-07-02T04:40:29.269Z,8
2017-07-02T04:41:09.719Z,8
2017-07-02T04:41:50.177Z,4
2017-07-02T04:42:30.638Z,4
2017-07-02T04:43:11.098Z,4
2017-07-02T04:43:51.551Z,4
2017-07-02T04:44:32.010Z,8
2017-07-02T04:45:12.479Z,8
2017-07-02T04:45:52.926Z,8
2017-07-02T04:46:33.381Z,8
2017-07-02T04:47:13.831Z,4
2017-07-02T04:47:54.310Z,4
2017-07-02T04:48:34.761Z,4
2017-07-02T04:49:15.212Z,8
2017-07-02T04:49:55.672Z,8
2017-07-02T04:50:36.146Z,4
2017-07-02T04:51:16.584Z,8
2017-07-02T04:51:57.047Z,8
2017-07-02T04:52:37.510Z,8
2017-07-02T04:53:17.960Z,8
2017-07-02T04:53:58.409Z,12
2017-07-02T04:54:38.854Z,8
2017-07-02T04:55:19.324Z,12
2017-07-02T04:55:59.762Z,12
2017-07-02T04:56:40.186Z,12
2017-07-02T04:57:20.657Z,12
2017-07-02T04:58:01.096Z,12
2017-07-02T04:58:41.545Z,12
2017-07-02T04:59:21.982Z,12
2017-07-02T05:00:02.442Z,12
2017-07-02T05:00:42.904Z,12
2017-07-02T05:01:23.353Z,12
2017-07-02T05:02:03.814Z,8
2017-07-02T05:02:44.265Z,8
2017-07-02T05:03:24.712Z,8
2017-07-02T05:04:05.166Z,8
2017-07-02T05:04:45.596Z,8
2017-07-02T05:05:26.051Z,8
2017-07-02T05:06:06.549Z,8
2017-07-02T05:06:46.940Z,12
2017-07-02T05:07:27.350Z,8
2017-07-02T05:08:07.710Z,12
2017-07-02T05:08:48.241Z,12
2017-07-02T05:09:28.686Z,12
2017-07-02T05:10:09.091Z,12
2017-07-02T05:10:49.535Z,12
2017-07-02T05:11:29.982Z,16
2017-07-02T05:12:10.370Z,12
2017-07-02T05:12:50.818Z,16
2017-07-02T05:13:31.188Z,12
2017-07-02T05:14:11.635Z,12
2017-07-02T05:14:52.037Z,12
2017-07-02T05:15:32.427Z,12
2017-07-02T05:16:12.895Z,8
2017-07-02T05:16:53.281Z,12
2017-07-02T05:17:33.712Z,8
2017-07-02T05:18:14.076Z,8
2017-07-02T05:18:54.526Z,8
2017-07-02T05:19:34.933Z,8
2017-07-02T05:21:52.846Z,8
2017-07-02T05:22:33.314Z,12
2017-07-02T05:23:13.731Z,16
2017-07-02T05:23:54.172Z,12
2017-07-02T05:26:22.255Z,8
2017-07-02T05:27:02.750Z,12
2017-07-02T05:27:43.252Z,8
2017-07-02T05:28:23.700Z,12
2017-07-02T05:29:04.171Z,12
2017-07-02T05:29:44.618Z,16
2017-07-02T05:30:25.046Z,12
2017-07-02T05:31:05.545Z,16
2017-07-02T05:31:46.050Z,16
2017-07-02T05:32:26.487Z,16
2017-07-02T05:33:06.916Z,20
2017-07-02T05:33:47.413Z,20
2017-07-02T05:34:27.854Z,20
2017-07-02T05:35:08.359Z,20
2017-07-02T05:35:48.904Z,24
2017-07-02T05:36:29.420Z,24
2017-07-02T05:37:09.913Z,24
2017-07-02T05:37:50.274Z,20
2017-07-02T05:40:08.341Z,24
2017-07-02T05:40:48.873Z,20
2017-07-02T05:41:29.366Z,20
2017-07-02T05:42:09.812Z,20
2017-07-02T05:42:50.214Z,20
2017-07-02T05:43:30.653Z,20
2017-07-02T05:44:11.094Z,20
2017-07-02T05:44:51.601Z,16
2017-07-02T05:45:32.131Z,20
2017-07-02T05:46:12.806Z,20
2017-07-02T05:46:53.365Z,20
2017-07-02T05:47:33.937Z,20
2017-07-02T05:48:14.423Z,20
2017-07-02T05:48:54.951Z,20
2017-07-02T05:49:35.617Z,24
2017-07-02T05:50:16.145Z,20
2017-07-02T05:50:56.592Z,20
2017-07-02T05:51:37.157Z,20
2017-07-02T05:52:17.641Z,20
2017-07-02T05:52:58.158Z,20
2017-07-02T05:53:38.692Z,20
2017-07-02T05:54:19.140Z,24
2017-07-02T05:56:47.348Z,24
2017-07-02T05:57:27.837Z,24
2017-07-02T05:58:08.232Z,28
2017-07-02T05:58:48.666Z,28
2017-07-02T05:59:30.007Z,28
2017-07-02T06:00:10.493Z,28
2017-07-02T06:00:51.023Z,28
2017-07-02T06:01:31.500Z,28
2017-07-02T06:02:12.006Z,28
2017-07-02T06:02:52.538Z,32
2017-07-02T06:03:32.990Z,32
2017-07-02T06:04:13.549Z,32
2017-07-02T06:04:53.993Z,32
2017-07-02T06:05:34.470Z,32
2017-07-02T06:06:14.886Z,32
2017-07-02T06:06:55.340Z,32
2017-07-02T06:07:35.804Z,32
2017-07-02T06:08:16.241Z,32
2017-07-02T06:08:56.670Z,36
2017-07-02T06:09:37.172Z,40
2017-07-02T06:10:17.613Z,44
2017-07-02T06:10:58.094Z,48
2017-07-02T06:11:38.579Z,52
2017-07-02T06:12:19.053Z,52
2017-07-02T06:12:59.499Z,52
2017-07-02T06:13:39.947Z,52
2017-07-02T06:14:20.386Z,48
2017-07-02T06:15:00.870Z,48
2017-07-02T06:15:41.309Z,48
2017-07-02T06:16:21.763Z,48
2017-07-02T06:17:02.207Z,48
2017-07-02T06:17:42.723Z,56
2017-07-02T06:18:23.110Z,52
2017-07-02T06:19:03.550Z,48
2017-07-02T06:19:44.058Z,40
2017-07-02T06:20:24.483Z,32
2017-07-02T06:21:04.899Z,28
2017-07-02T06:21:45.304Z,32
2017-07-02T06:22:25.716Z,32
2017-07-02T06:23:06.110Z,32
2017-07-02T06:23:46.546Z,28
2017-07-02T06:24:26.952Z,24
2017-07-02T06:25:07.465Z,24
2017-07-02T06:25:47.970Z,20
2017-07-02T06:26:28.410Z,24
2017-07-02T06:27:08.875Z,24
2017-07-02T06:27:49.300Z,24
2017-07-02T06:28:29.912Z,24
2017-07-02T06:29:10.355Z,24
2017-07-02T06:29:50.725Z,28
2017-07-02T06:30:31.144Z,24
2017-07-02T06:31:11.590Z,28
2017-07-02T06:31:52.065Z,32
2017-07-02T06:32:32.628Z,36
2017-07-02T06:33:13.154Z,40
2017-07-02T06:33:53.734Z,40
2017-07-02T06:34:34.232Z,44
2017-07-02T06:35:14.696Z,44
2017-07-02T06:35:55.151Z,40
2017-07-02T06:36:35.614Z,32
2017-07-02T06:37:16.073Z,36
2017-07-02T06:37:56.561Z,32
2017-07-02T06:38:37.012Z,36
2017-07-02T06:39:17.481Z,36
2017-07-02T06:39:57.929Z,36
2017-07-02T06:40:38.386Z,36
2017-07-02T06:41:18.846Z,36
2017-07-02T06:41:59.306Z,36
2017-07-02T06:42:39.762Z,36
2017-07-02T06:43:20.214Z,36
2017-07-02T06:44:00.662Z,40
2017-07-02T06:44:41.110Z,44
2017-07-02T06:45:21.569Z,44
2017-07-02T06:46:02.023Z,44
2017-07-02T06:46:42.479Z,40
2017-07-02T06:47:22.938Z,40
2017-07-02T06:48:03.386Z,44
2017-07-02T06:48:43.901Z,44
2017-07-02T06:49:24.356Z,40
2017-07-02T06:50:04.832Z,44
2017-07-02T06:50:45.281Z,44
2017-07-02T06:51:25.734Z,40
2017-07-02T06:52:06.183Z,44
2017-07-02T06:52:46.631Z,48
2017-07-02T06:53:27.078Z,48
2017-07-02T06:54:07.535Z,52
2017-07-02T06:54:47.980Z,52
2017-07-02T06:55:28.429Z,56
2017-07-02T06:56:08.887Z,56
2017-07-02T06:56:49.342Z,56
2017-07-02T06:57:29.803Z,52
2017-07-02T06:58:10.260Z,56
2017-07-02T06:58:50.721Z,56
2017-07-02T06:59:31.173Z,56
2017-07-02T07:00:11.629Z,60
2017-07-02T07:00:52.109Z,60
2017-07-02T07:01:32.542Z,60
2017-07-02T07:02:13.001Z,60
2017-07-02T07:02:53.447Z,68
2017-07-02T07:03:33.895Z,64
2017-07-02T07:04:14.355Z,60
2017-07-02T07:04:54.792Z,56
2017-07-02T07:05:35.249Z,52
2017-07-02T07:06:15.707Z,48
2017-07-02T07:06:56.161Z,44
2017-07-02T07:07:36.616Z,40
2017-07-02T07:08:17.065Z,40
2017-07-02T07:08:57.518Z,40
2017-07-02T07:09:38.020Z,32
2017-07-02T07:10:18.471Z,28
2017-07-02T07:10:58.901Z,32
2017-07-02T07:11:39.362Z,32
2017-07-02T07:12:19.815Z,36
2017-07-02T07:13:00.264Z,36
2017-07-02T07:13:40.723Z,36
2017-07-02T07:14:21.177Z,36
2017-07-02T07:15:01.627Z,36
2017-07-02T07:15:42.082Z,32
2017-07-02T07:16:22.544Z,36
2017-07-02T07:17:03.002Z,36
2017-07-02T07:17:43.460Z,40
2017-07-02T07:18:23.918Z,40
2017-07-02T07:19:04.379Z,40
2017-07-02T07:19:44.823Z,44
2017-07-02T07:20:25.275Z,40
2017-07-02T07:21:05.737Z,44
2017-07-02T07:21:46.187Z,44
2017-07-02T07:22:26.654Z,44
2017-07-02T07:23:07.093Z,40
2017-07-02T07:23:47.562Z,40
2017-07-02T07:24:28.025Z,40
2017-07-02T07:25:08.431Z,40
2017-07-02T07:25:48.821Z,40
2017-07-02T07:26:29.236Z,40
2017-07-02T07:27:09.667Z,44
2017-07-02T07:27:50.102Z,44
2017-07-02T07:30:03.017Z,44
2017-07-02T07:30:43.467Z,48
2017-07-02T07:31:23.916Z,48
2017-07-02T07:32:04.367Z,48
2017-07-02T07:32:44.821Z,48
2017-07-02T07:33:25.280Z,48
2017-07-02T07:34:05.715Z,52
2017-07-02T07:34:46.171Z,52
2017-07-02T07:35:26.612Z,52
2017-07-02T07:36:07.066Z,52
2017-07-02T07:36:47.501Z,56
2017-07-02T07:37:27.928Z,56
2017-07-02T07:38:08.356Z,60
2017-07-02T07:38:48.805Z,64
2017-07-02T07:39:29.239Z,64
2017-07-02T07:40:09.696Z,68
2017-07-02T07:40:50.157Z,72
2017-07-02T07:41:30.611Z,80
2017-07-02T07:42:11.066Z,84
2017-07-02T07:42:51.510Z,92
2017-07-02T07:43:31.950Z,176
2017-07-02T07:44:12.404Z,116
2017-07-02T07:44:52.860Z,100
2017-07-02T07:45:33.320Z,96
2017-07-02T07:46:13.782Z,92
2017-07-02T07:46:54.227Z,100
2017-07-02T07:47:34.684Z,196
2017-07-02T07:48:15.146Z,128
2017-07-02T07:48:55.606Z,116
2017-07-02T07:49:36.043Z,104
2017-07-02T07:50:16.437Z,96
2017-07-02T07:50:56.865Z,96
2017-07-02T07:51:37.311Z,92
2017-07-02T07:52:17.734Z,128
2017-07-02T07:52:58.109Z,128
2017-07-02T07:53:38.542Z,172
2017-07-02T07:54:18.992Z,144
2017-07-02T07:54:59.402Z,140
2017-07-02T07:55:39.785Z,180
2017-07-02T07:56:20.199Z,172
2017-07-02T07:57:00.555Z,140
2017-07-02T07:57:40.974Z,148
2017-07-02T07:58:21.391Z,156
2017-07-02T07:59:01.820Z,212
2017-07-02T08:01:30.458Z,208
2017-07-02T08:02:10.902Z,204
2017-07-02T08:02:51.345Z,200
2017-07-02T08:03:31.795Z,196
2017-07-02T08:04:12.266Z,176
2017-07-02T08:04:52.689Z,188
2017-07-02T08:05:33.143Z,192
2017-07-02T08:06:13.592Z,192
2017-07-02T08:06:54.044Z,184
2017-07-02T08:07:34.490Z,188
2017-07-02T08:08:14.924Z,192
2017-07-02T08:08:55.354Z,188
2017-07-02T08:09:35.773Z,192
2017-07-02T08:10:16.184Z,148
2017-07-02T08:10:56.596Z,192
2017-07-02T08:11:37.025Z,204
2017-07-02T08:12:17.462Z,204
2017-07-02T08:14:30.405Z,128
2017-07-02T08:15:10.857Z,128
2017-07-02T08:15:51.284Z,72
2017-07-02T08:16:31.898Z,64
2017-07-02T08:17:12.210Z,64
2017-07-02T08:17:52.640Z,140
2017-07-02T08:20:05.566Z,220
2017-07-02T08:20:46.022Z,212
2017-07-02T08:21:26.434Z,212
2017-07-02T08:22:06.880Z,216
2017-07-02T08:22:47.368Z,216
2017-07-02T08:23:27.821Z,216
2017-07-02T08:24:08.527Z,220
2017-07-02T08:24:48.999Z,224
2017-07-02T08:25:29.527Z,236
2017-07-02T08:26:09.946Z,236
2017-07-02T08:26:50.348Z,240
2017-07-02T08:27:30.810Z,240
2017-07-02T08:28:11.162Z,248
2017-07-02T08:28:51.568Z,256
2017-07-02T08:29:32.012Z,264
2017-07-02T08:30:12.432Z,112
2017-07-02T08:30:52.926Z,124
2017-07-02T08:31:33.386Z,200
2017-07-02T08:32:13.837Z,276
2017-07-02T08:32:54.290Z,252
2017-07-02T08:33:34.753Z,140
2017-07-02T08:34:15.206Z,180
2017-07-02T08:34:55.642Z,144
2017-07-02T08:35:36.108Z,132
2017-07-02T08:36:16.563Z,136
2017-07-02T08:36:57.004Z,156
2017-07-02T08:37:37.478Z,308
2017-07-02T08:38:17.899Z,300
2017-07-02T08:38:58.348Z,300
2017-07-02T08:39:38.786Z,292
2017-07-02T08:40:19.211Z,280
2017-07-02T08:40:59.625Z,280
2017-07-02T08:41:40.033Z,280
2017-07-02T08:42:20.463Z,280
2017-07-02T08:43:00.878Z,280
2017-07-02T08:43:41.280Z,192
2017-07-02T08:44:21.766Z,296
2017-07-02T08:45:02.140Z,208
2017-07-02T08:45:42.535Z,212
2017-07-02T08:46:22.986Z,148
2017-07-02T08:47:03.436Z,164
2017-07-02T08:47:44.075Z,176
2017-07-02T08:50:02.073Z,120
2017-07-02T08:50:42.529Z,116
2017-07-02T08:51:23.035Z,112
2017-07-02T08:52:03.873Z,112
2017-07-02T08:52:44.330Z,124
2017-07-02T08:53:24.782Z,152
2017-07-02T08:54:05.234Z,280
2017-07-02T08:54:45.690Z,188
2017-07-02T08:55:26.145Z,244
2017-07-02T08:56:06.601Z,272
2017-07-02T08:56:47.059Z,244
2017-07-02T08:57:27.516Z,224
2017-07-02T08:58:07.965Z,2112
2017-07-02T08:58:48.422Z,1904
2017-07-02T08:59:28.887Z,1744
2017-07-02T09:00:09.337Z,2392
2017-07-02T09:00:49.790Z,2180
2017-07-02T09:01:30.230Z,1984
2017-07-02T09:02:10.686Z,2208
2017-07-02T09:02:51.138Z,1680
2017-07-02T09:03:31.604Z,1356
2017-07-02T09:04:12.077Z,1228
2017-07-02T09:04:52.533Z,1180
2017-07-02T09:05:33.097Z,1164
2017-07-02T09:06:13.547Z,1152
2017-07-02T09:06:54.000Z,1168
2017-07-02T09:07:34.455Z,1164
2017-07-02T09:08:14.910Z,1164
2017-07-02T09:08:55.406Z,1184
2017-07-02T09:11:23.937Z,1180
2017-07-02T09:12:04.452Z,1176
2017-07-02T09:12:44.919Z,1200
2017-07-02T09:13:25.855Z,1220
2017-07-02T09:14:06.006Z,1276
2017-07-02T09:14:46.461Z,1348
2017-07-02T09:15:26.919Z,1364
2017-07-02T09:16:07.374Z,1412
2017-07-02T09:16:47.860Z,1820
2017-07-02T09:17:28.315Z,2200
2017-07-02T09:18:08.770Z,1696
2017-07-02T09:18:49.210Z,1792
2017-07-02T09:19:29.666Z,1752
2017-07-02T09:20:10.123Z,1724
2017-07-02T09:20:50.556Z,1868
2017-07-02T09:21:31.060Z,1560
2017-07-02T09:22:11.531Z,1352
2017-07-02T09:22:51.959Z,1296
2017-07-02T09:25:20.256Z,1336
2017-07-02T09:26:00.722Z,1220
2017-07-02T09:26:41.205Z,1160
2017-07-02T09:27:21.663Z,1128
2017-07-02T09:28:02.117Z,1200
2017-07-02T09:28:42.575Z,1228
2017-07-02T09:29:23.027Z,1216
2017-07-02T09:30:03.490Z,1276
2017-07-02T09:30:43.968Z,1436
2017-07-02T09:31:24.493Z,2124
2017-07-02T09:32:04.948Z,1520
2017-07-02T09:32:45.411Z,2256
2017-07-02T09:33:25.855Z,1632
2017-07-02T09:34:06.304Z,1840
2017-07-02T09:34:46.766Z,2464
2017-07-02T09:35:27.218Z,2660
2017-07-02T09:37:45.210Z,1088
2017-07-02T09:38:25.683Z,1032
2017-07-02T09:39:06.163Z,1036
2017-07-02T09:39:46.617Z,1048
2017-07-02T09:40:27.045Z,1024
2017-07-02T09:41:07.501Z,1104
2017-07-02T09:41:47.975Z,1304
2017-07-02T09:42:28.468Z,1340
2017-07-02T09:43:08.880Z,1316
2017-07-02T09:43:49.349Z,1296
2017-07-02T09:44:29.782Z,1332
2017-07-02T09:45:10.247Z,1556
2017-07-02T09:45:50.688Z,1408
2017-07-02T09:46:31.143Z,1392
2017-07-02T09:47:11.596Z,1472
2017-07-02T09:47:52.032Z,1416
2017-07-02T09:48:32.469Z,1588
2017-07-02T09:49:12.931Z,1448
2017-07-02T09:49:53.380Z,2164
2017-07-02T09:50:33.875Z,1804
2017-07-02T09:51:14.299Z,1712
2017-07-02T09:51:54.750Z,2372
2017-07-02T09:52:35.213Z,2164
2017-07-02T09:53:15.702Z,2252
2017-07-02T09:53:56.132Z,1688
2017-07-02T09:54:36.585Z,1252
2017-07-02T09:55:17.049Z,1160
2017-07-02T09:55:57.499Z,1172
2017-07-02T09:56:37.961Z,1200
2017-07-02T09:57:18.416Z,1144
2017-07-02T09:57:58.858Z,1076
2017-07-02T09:58:39.293Z,1024
2017-07-02T09:59:19.738Z,980
2017-07-02T10:00:00.226Z,956
2017-07-02T10:00:40.668Z,968
2017-07-02T10:01:21.131Z,1016
2017-07-02T10:02:01.568Z,1096
2017-07-02T10:02:42.020Z,1168
2017-07-02T10:03:22.481Z,1208
2017-07-02T10:04:02.939Z,1244
2017-07-02T10:04:43.417Z,1280